createdAt,value
2023-05-14T00:01:00.667Z,38.7782
2023-05-14T00:02:01.901Z,38.8537
2023-05-14T00:03:02.959Z,38.9443
2023-05-14T00:04:04.007Z,38.9039
2023-05-14T00:05:05.074Z,38.8240
2023-05-14T00:06:06.136Z,38.6449
2023-05-14T00:07:07.234Z,38.6247
2023-05-14T00:08:08.331Z,38.6085
2023-05-14T00:09:09.432Z,38.6178
2023-05-14T00:10:10.525Z,38.6208
2023-05-14T00:11:11.627Z,38.5895
2023-05-14T00:12:12.717Z,38.6088
2023-05-14T00:13:13.788Z,38.6441
2023-05-14T00:14:14.898Z,38.6096
2023-05-14T00:15:16.002Z,38.5557
2023-05-14T00:16:17.102Z,38.5118
2023-05-14T00:17:18.193Z,38.6140
2023-05-14T00:18:19.302Z,38.7475
2023-05-14T00:19:20.667Z,38.8312
2023-05-14T00:20:21.736Z,38.8377
2023-05-14T00:21:22.589Z,38.7583
2023-05-14T00:22:23.671Z,38.7450
2023-05-14T00:23:24.765Z,38.6730
2023-05-14T00:24:25.856Z,38.6034
2023-05-14T00:25:26.981Z,38.5411
2023-05-14T00:26:28.050Z,38.5843
2023-05-14T00:27:29.161Z,38.6485
2023-05-14T00:28:30.235Z,38.5580
2023-05-14T00:29:31.373Z,38.3729
2023-05-14T00:30:32.406Z,38.4329
2023-05-14T00:31:33.532Z,38.4068
2023-05-14T00:32:34.653Z,38.2699
2023-05-14T00:33:35.717Z,38.1958
2023-05-14T00:34:36.812Z,38.1714
2023-05-14T00:35:37.898Z,38.1538
2023-05-14T00:36:39.028Z,38.1355
2023-05-14T00:37:40.105Z,38.0824
2023-05-14T00:38:41.181Z,38.1804
2023-05-14T00:39:42.275Z,38.2692
2023-05-14T00:40:43.396Z,38.2920
2023-05-14T00:41:44.485Z,38.2571
2023-05-14T00:42:45.581Z,38.2483
2023-05-14T00:43:46.673Z,38.2722
2023-05-14T00:44:47.765Z,38.2471
2023-05-14T00:45:48.856Z,38.2879
2023-05-14T00:46:49.985Z,38.2848
2023-05-14T00:47:51.092Z,38.2342
2023-05-14T00:48:52.139Z,38.1954
2023-05-14T00:49:53.230Z,38.1594
2023-05-14T00:50:54.357Z,38.1162
2023-05-14T00:51:55.445Z,38.1528
2023-05-14T00:52:56.535Z,38.2877
2023-05-14T00:53:57.622Z,38.2822
2023-05-14T00:54:58.729Z,38.3010
2023-05-14T00:55:59.840Z,38.2667
2023-05-14T00:57:00.940Z,38.3138
2023-05-14T00:58:02.025Z,38.3314
2023-05-14T00:59:03.145Z,38.3832
2023-05-14T01:00:04.215Z,38.4228
2023-05-14T01:01:05.348Z,38.2697
2023-05-14T01:02:06.408Z,38.2705
2023-05-14T01:03:07.648Z,38.3443
2023-05-14T01:04:08.641Z,38.4433
2023-05-14T01:05:09.691Z,38.5242
2023-05-14T01:06:10.805Z,38.5279
2023-05-14T01:07:11.877Z,38.5564
2023-05-14T01:08:12.975Z,38.5435
2023-05-14T01:09:14.074Z,38.4682
2023-05-14T01:10:15.170Z,38.4787
2023-05-14T01:11:16.272Z,38.4937
2023-05-14T01:12:17.350Z,38.4530
2023-05-14T01:13:18.521Z,38.3957
2023-05-14T01:14:19.541Z,38.3561
2023-05-14T01:15:20.635Z,38.4248
2023-05-14T01:16:21.784Z,38.4364
2023-05-14T01:17:22.836Z,38.4410
2023-05-14T01:18:23.942Z,38.4334
2023-05-14T01:19:25.017Z,38.4266
2023-05-14T01:20:26.290Z,38.2861
2023-05-14T01:21:27.233Z,38.1800
2023-05-14T01:22:28.297Z,38.1822
2023-05-14T01:23:29.388Z,38.1356
2023-05-14T01:24:30.482Z,38.2244
2023-05-14T01:25:31.598Z,38.3913
2023-05-14T01:26:32.689Z,38.4369
2023-05-14T01:27:33.777Z,38.3645
2023-05-14T01:28:34.878Z,38.2950
2023-05-14T01:29:35.951Z,38.3574
2023-05-14T01:30:37.067Z,38.3671
2023-05-14T01:31:38.229Z,38.2586
2023-05-14T01:32:39.316Z,38.0687
2023-05-14T01:33:40.353Z,38.0308
2023-05-14T01:34:41.453Z,37.9386
2023-05-14T01:35:42.572Z,37.9504
2023-05-14T01:36:43.654Z,37.9750
2023-05-14T01:37:44.730Z,37.9781
2023-05-14T01:38:45.871Z,38.0746
2023-05-14T01:39:46.936Z,38.1161
2023-05-14T01:40:48.043Z,38.1735
2023-05-14T01:41:49.124Z,38.1821
2023-05-14T01:42:50.243Z,38.2039
2023-05-14T01:43:51.297Z,38.2061
2023-05-14T01:44:52.408Z,38.1247
2023-05-14T01:45:53.543Z,37.9696
2023-05-14T01:46:54.650Z,37.9187
2023-05-14T01:47:55.715Z,37.8968
2023-05-14T01:48:56.799Z,37.9156
2023-05-14T01:49:57.910Z,37.9507
2023-05-14T01:50:58.994Z,37.9351
2023-05-14T01:52:00.111Z,37.9100
2023-05-14T01:53:01.171Z,37.9042
2023-05-14T01:54:02.282Z,37.8098
2023-05-14T01:55:03.393Z,37.8376
2023-05-14T01:56:04.478Z,37.8775
2023-05-14T01:57:05.604Z,37.7906
2023-05-14T01:58:06.655Z,37.8635
2023-05-14T01:59:07.758Z,37.8581
2023-05-14T02:00:08.857Z,37.8529
2023-05-14T02:01:09.985Z,37.8618
2023-05-14T02:02:11.057Z,38.0010
2023-05-14T02:03:12.228Z,38.0676
2023-05-14T02:04:13.329Z,37.9010
2023-05-14T02:05:21.869Z,37.8231
2023-05-14T02:06:15.422Z,37.8661
2023-05-14T02:07:16.562Z,37.7848
2023-05-14T02:08:17.639Z,37.8183
2023-05-14T02:09:18.711Z,37.8079
2023-05-14T02:10:27.398Z,37.8858
2023-05-14T02:11:20.923Z,37.9584
2023-05-14T02:12:22.049Z,38.0105
2023-05-14T02:13:23.103Z,38.1033
2023-05-14T02:14:24.217Z,38.0608
2023-05-14T02:15:25.310Z,38.1316
2023-05-14T02:16:26.419Z,38.1371
2023-05-14T02:17:27.577Z,38.1315
2023-05-14T02:18:28.634Z,38.0909
2023-05-14T02:19:29.712Z,38.0330
2023-05-14T02:20:30.809Z,38.0619
2023-05-14T02:21:31.889Z,38.0890
2023-05-14T02:22:33.010Z,37.9981
2023-05-14T02:23:40.936Z,37.9668
2023-05-14T02:24:36.183Z,37.8441
2023-05-14T02:25:36.298Z,37.8760
2023-05-14T02:26:37.412Z,37.9653
2023-05-14T02:27:38.507Z,38.0765
2023-05-14T02:28:39.573Z,38.0669
2023-05-14T02:29:40.669Z,37.9885
2023-05-14T02:30:41.765Z,37.9849
2023-05-14T02:31:42.908Z,37.9994
2023-05-14T02:32:44.045Z,37.8825
2023-05-14T02:33:45.081Z,37.8007
2023-05-14T02:34:46.154Z,37.7947
2023-05-14T02:35:47.273Z,37.8601
2023-05-14T02:36:48.337Z,37.9822
2023-05-14T02:37:49.464Z,38.1085
2023-05-14T02:38:50.556Z,38.1432
2023-05-14T02:39:51.633Z,38.0454
2023-05-14T02:40:52.741Z,37.9430
2023-05-14T02:41:53.823Z,37.7646
2023-05-14T02:42:55.032Z,37.6208
2023-05-14T02:43:56.081Z,37.5231
2023-05-14T02:44:57.223Z,37.6477
2023-05-14T02:45:58.294Z,37.6551
2023-05-14T02:46:59.422Z,37.6006
2023-05-14T02:48:00.522Z,37.6386
2023-05-14T02:49:01.569Z,37.6555
2023-05-14T02:50:02.696Z,37.6858
2023-05-14T02:51:03.786Z,37.6940
2023-05-14T02:52:04.890Z,37.7227
2023-05-14T02:53:05.989Z,37.7471
2023-05-14T02:54:07.051Z,37.6889
2023-05-14T02:55:08.168Z,37.6113
2023-05-14T02:56:09.287Z,37.5795
2023-05-14T02:57:10.376Z,37.4527
2023-05-14T02:58:11.470Z,37.4785
2023-05-14T02:59:12.559Z,37.4282
2023-05-14T03:00:13.642Z,37.4401
2023-05-14T03:01:14.765Z,37.4185
2023-05-14T03:02:15.900Z,37.5447
2023-05-14T03:03:17.044Z,37.5180
2023-05-14T03:04:18.029Z,37.5843
2023-05-14T03:05:19.115Z,37.5357
2023-05-14T03:06:20.227Z,37.6704
2023-05-14T03:07:21.317Z,37.7721
2023-05-14T03:08:22.458Z,37.7167
2023-05-14T03:09:23.520Z,37.7657
2023-05-14T03:10:24.816Z,37.7779
2023-05-14T03:11:25.725Z,37.7612
2023-05-14T03:12:26.793Z,37.8472
2023-05-14T03:13:27.921Z,37.8002
2023-05-14T03:14:29.008Z,37.7663
2023-05-14T03:15:30.091Z,37.7867
2023-05-14T03:16:31.229Z,37.8838
2023-05-14T03:17:32.327Z,37.8839
2023-05-14T03:18:33.427Z,37.9756
2023-05-14T03:19:34.472Z,38.0195
2023-05-14T03:20:35.567Z,37.9947
2023-05-14T03:21:36.669Z,37.9324
2023-05-14T03:22:37.748Z,37.9014
2023-05-14T03:23:38.864Z,37.9594
2023-05-14T03:24:40.003Z,38.0202
2023-05-14T03:25:41.048Z,37.9801
2023-05-14T03:26:42.158Z,37.8957
2023-05-14T03:27:43.239Z,37.8309
2023-05-14T03:28:44.330Z,37.8487
2023-05-14T03:29:45.421Z,37.8625
2023-05-14T03:30:46.533Z,37.8905
2023-05-14T03:31:47.630Z,37.8693
2023-05-14T03:32:48.733Z,37.9389
2023-05-14T03:33:49.836Z,37.9664
2023-05-14T03:34:50.905Z,37.9817
2023-05-14T03:35:51.999Z,37.9510
2023-05-14T03:36:53.112Z,37.9646
2023-05-14T03:37:54.204Z,38.0373
2023-05-14T03:38:55.314Z,37.9878
2023-05-14T03:39:56.396Z,37.9177
2023-05-14T03:40:57.508Z,37.8263
2023-05-14T03:41:58.578Z,37.7162
2023-05-14T03:42:59.733Z,37.5718
2023-05-14T03:44:00.817Z,37.5859
2023-05-14T03:45:01.873Z,37.6201
2023-05-14T03:46:03.006Z,37.5781
2023-05-14T03:47:04.082Z,37.5277
2023-05-14T03:48:05.284Z,37.5874
2023-05-14T03:49:06.322Z,37.5180
2023-05-14T03:50:07.359Z,37.5412
2023-05-14T03:51:08.477Z,37.5110
2023-05-14T03:52:09.519Z,37.4911
2023-05-14T03:53:10.608Z,37.5748
2023-05-14T03:54:11.759Z,37.5187
2023-05-14T03:55:12.804Z,37.3634
2023-05-14T03:56:13.910Z,37.3057
2023-05-14T03:57:15.010Z,37.2491
2023-05-14T03:58:16.134Z,37.2873
2023-05-14T03:59:17.193Z,37.2746
2023-05-14T04:00:18.293Z,37.3331
2023-05-14T04:01:19.387Z,37.3750
2023-05-14T04:02:20.513Z,37.2784
2023-05-14T04:03:21.647Z,37.3415
2023-05-14T04:04:22.699Z,37.3467
2023-05-14T04:05:23.755Z,37.1915
2023-05-14T04:06:24.854Z,37.0364
2023-05-14T04:07:25.946Z,37.1041
2023-05-14T04:08:27.060Z,37.2074
2023-05-14T04:09:28.189Z,37.2948
2023-05-14T04:10:29.240Z,37.2036
2023-05-14T04:11:30.335Z,37.2136
2023-05-14T04:12:31.419Z,37.1939
2023-05-14T04:13:32.537Z,37.2178
2023-05-14T04:14:33.659Z,37.3378
2023-05-14T04:15:34.723Z,37.4448
2023-05-14T04:16:35.873Z,37.4994
2023-05-14T04:17:36.949Z,37.5378
2023-05-14T04:18:38.052Z,37.5494
2023-05-14T04:19:39.142Z,37.6365
2023-05-14T04:20:40.211Z,37.7707
2023-05-14T04:21:41.288Z,37.8120
2023-05-14T04:22:42.396Z,37.7859
2023-05-14T04:23:43.508Z,37.7575
2023-05-14T04:24:44.587Z,37.7696
2023-05-14T04:25:45.694Z,37.7406
2023-05-14T04:26:46.785Z,37.5865
2023-05-14T04:27:47.867Z,37.5069
2023-05-14T04:28:48.970Z,37.4771
2023-05-14T04:29:50.056Z,37.3823
2023-05-14T04:30:51.160Z,37.3805
2023-05-14T04:31:52.300Z,37.4592
2023-05-14T04:32:53.383Z,37.5826
2023-05-14T04:33:54.442Z,37.6252
2023-05-14T04:34:55.550Z,37.6029
2023-05-14T04:35:56.664Z,37.5705
2023-05-14T04:36:57.737Z,37.5169
2023-05-14T04:37:58.828Z,37.5356
2023-05-14T04:38:59.925Z,37.6317
2023-05-14T04:40:01.044Z,37.6650
2023-05-14T04:41:02.153Z,37.5637
2023-05-14T04:42:03.231Z,37.4874
2023-05-14T04:43:04.329Z,37.3838
2023-05-14T04:44:05.405Z,37.3619
2023-05-14T04:45:06.520Z,37.4560
2023-05-14T04:46:07.638Z,37.6072
2023-05-14T04:47:08.682Z,37.5972
2023-05-14T04:48:09.831Z,37.5242
2023-05-14T04:49:10.910Z,37.5644
2023-05-14T04:50:11.999Z,37.6732
2023-05-14T04:51:13.084Z,37.7006
2023-05-14T04:52:14.189Z,37.6448
2023-05-14T04:53:15.277Z,37.5975
2023-05-14T04:54:16.404Z,37.6668
2023-05-14T04:55:17.486Z,37.7990
2023-05-14T04:56:18.598Z,37.9038
2023-05-14T04:57:19.651Z,37.8782
2023-05-14T04:58:20.740Z,37.8650
2023-05-14T04:59:21.834Z,37.9690
2023-05-14T05:00:23.296Z,37.9857
2023-05-14T05:01:24.087Z,37.9451
2023-05-14T05:02:25.178Z,37.8882
2023-05-14T05:03:26.262Z,37.8581
2023-05-14T05:04:27.325Z,37.8284
2023-05-14T05:05:28.444Z,37.8236
2023-05-14T05:06:29.537Z,37.7504
2023-05-14T05:07:30.641Z,37.6928
2023-05-14T05:08:31.716Z,37.4224
2023-05-14T05:09:32.819Z,37.3636
2023-05-14T05:10:33.958Z,37.2708
2023-05-14T05:11:35.024Z,37.2048
2023-05-14T05:12:36.102Z,37.1219
2023-05-14T05:13:37.199Z,37.0682
2023-05-14T05:14:38.306Z,37.1489
2023-05-14T05:15:39.456Z,37.2212
2023-05-14T05:16:40.510Z,37.2795
2023-05-14T05:17:41.643Z,37.3160
2023-05-14T05:18:42.716Z,37.3081
2023-05-14T05:19:44.621Z,37.3656
2023-05-14T05:20:44.887Z,37.4405
2023-05-14T05:21:46.006Z,37.5941
2023-05-14T05:22:47.093Z,37.6853
2023-05-14T05:23:48.174Z,37.7857
2023-05-14T05:24:50.029Z,37.8519
2023-05-14T05:25:50.402Z,37.7668
2023-05-14T05:26:51.495Z,37.6005
2023-05-14T05:27:52.552Z,37.6428
2023-05-14T05:28:53.649Z,37.7506
2023-05-14T05:29:54.747Z,37.8700
2023-05-14T05:30:55.869Z,37.8502
2023-05-14T05:31:57.019Z,37.9544
2023-05-14T05:32:58.092Z,38.0249
2023-05-14T05:33:59.157Z,37.9848
2023-05-14T05:35:00.239Z,37.9952
2023-05-14T05:36:01.352Z,38.0159
2023-05-14T05:37:02.439Z,38.1082
2023-05-14T05:38:03.543Z,38.1186
2023-05-14T05:39:04.639Z,38.1027
2023-05-14T05:40:05.744Z,38.0263
2023-05-14T05:41:06.855Z,38.0711
2023-05-14T05:42:07.932Z,38.1167
2023-05-14T05:43:09.020Z,38.1223
2023-05-14T05:44:10.124Z,38.0985
2023-05-14T05:45:11.215Z,38.0224
2023-05-14T05:46:12.343Z,38.0658
2023-05-14T05:47:13.438Z,38.0687
2023-05-14T05:48:14.537Z,37.9896
2023-05-14T05:49:15.621Z,37.9444
2023-05-14T05:50:18.399Z,37.9828
2023-05-14T05:51:17.851Z,38.0217
2023-05-14T05:52:18.900Z,38.0195
2023-05-14T05:53:20.035Z,38.0826
2023-05-14T05:54:21.105Z,38.0936
2023-05-14T05:55:22.210Z,37.9666
2023-05-14T05:56:23.311Z,37.9483
2023-05-14T05:57:26.305Z,37.9386
2023-05-14T05:58:25.525Z,37.9238
2023-05-14T05:59:26.628Z,37.7322
2023-05-14T06:00:27.701Z,37.6758
2023-05-14T06:01:28.832Z,37.5873
2023-05-14T06:02:29.997Z,37.6779
2023-05-14T06:03:31.003Z,37.8123
2023-05-14T06:04:32.129Z,37.9798
2023-05-14T06:05:33.303Z,38.0557
2023-05-14T06:06:34.328Z,38.0385
2023-05-14T06:07:35.389Z,38.0094
2023-05-14T06:08:36.513Z,38.1011
2023-05-14T06:09:37.629Z,38.2061
2023-05-14T06:10:38.709Z,38.3203
2023-05-14T06:11:39.800Z,38.3951
2023-05-14T06:12:40.908Z,38.4618
2023-05-14T06:13:41.994Z,38.5108
2023-05-14T06:14:43.107Z,38.5020
2023-05-14T06:15:44.218Z,38.4512
2023-05-14T06:16:45.362Z,38.4612
2023-05-14T06:17:46.439Z,38.3440
2023-05-14T06:18:47.510Z,38.2544
2023-05-14T06:19:48.632Z,38.3392
2023-05-14T06:20:49.682Z,38.4365
2023-05-14T06:21:50.811Z,38.4067
2023-05-14T06:22:51.899Z,38.3175
2023-05-14T06:23:53.002Z,38.3879
2023-05-14T06:24:54.104Z,38.4746
2023-05-14T06:25:55.174Z,38.4435
2023-05-14T06:26:56.294Z,38.4973
2023-05-14T06:27:57.358Z,38.4982
2023-05-14T06:28:58.471Z,38.5520
2023-05-14T06:29:59.581Z,38.5794
2023-05-14T06:31:00.671Z,38.4730
2023-05-14T06:32:01.842Z,38.3263
2023-05-14T06:33:02.884Z,38.2632
2023-05-14T06:34:03.957Z,38.3605
2023-05-14T06:35:05.058Z,38.4883
2023-05-14T06:36:06.148Z,38.4844
2023-05-14T06:37:07.275Z,38.5295
2023-05-14T06:38:08.367Z,38.6295
2023-05-14T06:39:09.466Z,38.5889
2023-05-14T06:40:10.550Z,38.5728
2023-05-14T06:41:11.642Z,38.6061
2023-05-14T06:42:12.750Z,38.6742
2023-05-14T06:43:13.941Z,38.6395
2023-05-14T06:44:15.033Z,38.6363
2023-05-14T06:45:16.143Z,38.6769
2023-05-14T06:46:17.238Z,38.8043
2023-05-14T06:47:18.320Z,38.9246
2023-05-14T06:48:19.536Z,39.0467
2023-05-14T06:49:20.540Z,39.1120
2023-05-14T06:50:21.828Z,39.1147
2023-05-14T06:51:22.723Z,39.1150
2023-05-14T06:52:23.827Z,39.2061
2023-05-14T06:53:24.934Z,39.2130
2023-05-14T06:54:26.038Z,39.3413
2023-05-14T06:55:27.101Z,39.3058
2023-05-14T06:56:28.221Z,39.3339
2023-05-14T06:57:29.323Z,39.4336
2023-05-14T06:58:30.429Z,39.3922
2023-05-14T06:59:31.505Z,39.2714
2023-05-14T07:00:32.624Z,39.2319
2023-05-14T07:01:33.746Z,39.3132
2023-05-14T07:02:34.834Z,39.4779
2023-05-14T07:03:35.899Z,39.5950
2023-05-14T07:04:37.081Z,39.5233
2023-05-14T07:05:38.116Z,39.6306
2023-05-14T07:06:39.219Z,39.6858
2023-05-14T07:07:40.325Z,39.7996
2023-05-14T07:08:41.408Z,39.8766
2023-05-14T07:09:42.496Z,39.9176
2023-05-14T07:10:43.619Z,39.9954
2023-05-14T07:11:44.720Z,40.0562
2023-05-14T07:12:45.846Z,40.0627
2023-05-14T07:13:46.935Z,40.1077
2023-05-14T07:14:48.028Z,40.1509
2023-05-14T07:15:49.098Z,40.2115
2023-05-14T07:16:50.258Z,40.2158
2023-05-14T07:17:51.345Z,40.2258
2023-05-14T07:18:52.450Z,40.2982
2023-05-14T07:19:53.496Z,40.4218
2023-05-14T07:20:54.587Z,40.4653
2023-05-14T07:21:55.709Z,40.5048
2023-05-14T07:22:56.841Z,40.4960
2023-05-14T07:23:57.884Z,40.4918
2023-05-14T07:24:58.984Z,40.5944
2023-05-14T07:26:00.096Z,40.7310
2023-05-14T07:27:01.203Z,40.7576
2023-05-14T07:28:02.288Z,40.8597
2023-05-14T07:29:03.406Z,40.9528
2023-05-14T07:30:04.482Z,40.8967
2023-05-14T07:31:05.681Z,40.7778
2023-05-14T07:32:06.701Z,40.7856
2023-05-14T07:33:07.829Z,40.9272
2023-05-14T07:34:08.886Z,41.0891
2023-05-14T07:35:09.975Z,41.1459
2023-05-14T07:36:11.123Z,41.1233
2023-05-14T07:37:12.194Z,41.1201
2023-05-14T07:38:13.273Z,41.0123
2023-05-14T07:39:14.364Z,41.0292
2023-05-14T07:40:15.481Z,41.1177
2023-05-14T07:41:16.571Z,41.1845
2023-05-14T07:42:28.004Z,41.2512
2023-05-14T07:43:19.778Z,41.2983
2023-05-14T07:44:19.865Z,41.3785
2023-05-14T07:45:20.957Z,41.4511
2023-05-14T07:46:22.070Z,41.4680
2023-05-14T07:47:23.188Z,41.5193
2023-05-14T07:48:24.341Z,41.6419
2023-05-14T07:49:25.377Z,41.6631
2023-05-14T07:50:26.748Z,41.7031
2023-05-14T07:51:27.560Z,41.6976
2023-05-14T07:52:28.637Z,41.7132
2023-05-14T07:53:29.758Z,41.6761
2023-05-14T07:54:30.850Z,41.5561
2023-05-14T07:55:31.952Z,41.5145
2023-05-14T07:56:33.055Z,41.5383
2023-05-14T07:57:34.152Z,41.5809
2023-05-14T07:58:35.255Z,41.7103
2023-05-14T07:59:36.345Z,41.7925
2023-05-14T08:00:37.450Z,41.9178
2023-05-14T08:01:39.480Z,42.0206
2023-05-14T08:02:39.766Z,41.9983
2023-05-14T08:03:40.793Z,41.8560
2023-05-14T08:04:41.839Z,41.8282
2023-05-14T08:05:42.964Z,41.8716
2023-05-14T08:06:44.053Z,41.9361
2023-05-14T08:07:45.163Z,42.0496
2023-05-14T08:08:46.321Z,42.0697
2023-05-14T08:09:47.348Z,42.0736
2023-05-14T08:10:48.457Z,42.0708
2023-05-14T08:11:49.553Z,42.0782
2023-05-14T08:12:50.651Z,42.1056
2023-05-14T08:13:51.757Z,42.0029
2023-05-14T08:14:52.846Z,41.9180
2023-05-14T08:15:53.955Z,41.8824
2023-05-14T08:16:55.116Z,41.8169
2023-05-14T08:17:56.202Z,41.7882
2023-05-14T08:18:57.291Z,41.7797
2023-05-14T08:19:58.320Z,41.8310
2023-05-14T08:20:59.441Z,41.7966
2023-05-14T08:22:00.555Z,41.6364
2023-05-14T08:23:01.636Z,41.5323
2023-05-14T08:24:02.726Z,41.5010
2023-05-14T08:25:03.813Z,41.5652
2023-05-14T08:26:04.918Z,41.7180
2023-05-14T08:27:06.018Z,41.8287
2023-05-14T08:28:07.134Z,41.8826
2023-05-14T08:29:09.362Z,41.9368
2023-05-14T08:30:09.295Z,41.9620
2023-05-14T08:31:10.440Z,41.9806
2023-05-14T08:32:22.006Z,42.0773
2023-05-14T08:33:13.608Z,42.0975
2023-05-14T08:34:13.716Z,42.0875
2023-05-14T08:35:14.808Z,41.9261
2023-05-14T08:36:15.896Z,41.8247
2023-05-14T08:37:16.991Z,41.8017
2023-05-14T08:38:18.097Z,41.7814
2023-05-14T08:39:19.188Z,41.8248
2023-05-14T08:40:20.278Z,41.8070
2023-05-14T08:41:21.382Z,41.8010
2023-05-14T08:42:22.487Z,41.7827
2023-05-14T08:43:23.581Z,41.8219
2023-05-14T08:44:24.665Z,41.9385
2023-05-14T08:45:25.826Z,41.9827
2023-05-14T08:46:26.849Z,41.9417
2023-05-14T08:47:27.977Z,41.9715
2023-05-14T08:48:29.141Z,41.9741
2023-05-14T08:49:30.175Z,41.9245
2023-05-14T08:50:31.337Z,41.9022
2023-05-14T08:51:32.327Z,41.8451
2023-05-14T08:52:33.428Z,41.7234
2023-05-14T08:53:34.534Z,41.5471
2023-05-14T08:54:35.648Z,41.3970
2023-05-14T08:55:36.705Z,41.3309
2023-05-14T08:56:37.805Z,41.4114
2023-05-14T08:57:38.903Z,41.4504
2023-05-14T08:58:40.020Z,41.4613
2023-05-14T08:59:41.108Z,41.4835
2023-05-14T09:00:42.207Z,41.4990
2023-05-14T09:01:43.283Z,41.5848
2023-05-14T09:02:44.488Z,41.6584
2023-05-14T09:03:45.580Z,41.7955
2023-05-14T09:04:46.570Z,41.8227
2023-05-14T09:05:47.692Z,41.7729
2023-05-14T09:06:48.754Z,41.7566
2023-05-14T09:07:49.858Z,41.7147
2023-05-14T09:08:50.976Z,41.6320
2023-05-14T09:09:52.095Z,41.5598
2023-05-14T09:10:53.162Z,41.5703
2023-05-14T09:11:54.264Z,41.6822
2023-05-14T09:12:55.357Z,41.7539
2023-05-14T09:13:56.431Z,41.8587
2023-05-14T09:14:57.579Z,41.9574
2023-05-14T09:15:58.668Z,42.0421
2023-05-14T09:16:59.729Z,42.1781
2023-05-14T09:18:00.870Z,42.2780
2023-05-14T09:19:02.019Z,42.1780
2023-05-14T09:20:03.073Z,42.1522
2023-05-14T09:21:04.144Z,42.1043
2023-05-14T09:22:05.253Z,41.8722
2023-05-14T09:23:06.324Z,41.7105
2023-05-14T09:24:07.428Z,41.6301
2023-05-14T09:25:08.554Z,41.6160
2023-05-14T09:26:09.643Z,41.5532
2023-05-14T09:27:10.729Z,41.4948
2023-05-14T09:28:11.871Z,41.4879
2023-05-14T09:29:12.937Z,41.4568
2023-05-14T09:30:14.046Z,41.3911
2023-05-14T09:31:15.156Z,41.3484
2023-05-14T09:32:16.229Z,41.2402
2023-05-14T09:33:17.325Z,41.1645
2023-05-14T09:34:18.425Z,41.1564
2023-05-14T09:35:19.530Z,41.1447
2023-05-14T09:36:20.600Z,41.1836
2023-05-14T09:37:21.725Z,41.3065
2023-05-14T09:38:22.798Z,41.3817
2023-05-14T09:39:23.918Z,41.4388
2023-05-14T09:40:25.402Z,41.4580
2023-05-14T09:41:26.091Z,41.5890
2023-05-14T09:42:27.196Z,41.6308
2023-05-14T09:43:28.298Z,41.6978
2023-05-14T09:44:29.439Z,41.7280
2023-05-14T09:45:30.518Z,41.7461
2023-05-14T09:46:31.612Z,41.7625
2023-05-14T09:47:32.803Z,41.7157
2023-05-14T09:48:33.824Z,41.6242
2023-05-14T09:49:34.883Z,41.5387
2023-05-14T09:50:35.965Z,41.4369
2023-05-14T09:51:37.061Z,41.3347
2023-05-14T09:52:38.171Z,41.3600
2023-05-14T09:53:39.262Z,41.3136
2023-05-14T09:54:40.362Z,41.4035
2023-05-14T09:55:41.474Z,41.4710
2023-05-14T09:56:42.529Z,41.5149
2023-05-14T09:57:43.648Z,41.5520
2023-05-14T09:58:44.750Z,41.6027
2023-05-14T09:59:45.841Z,41.6733
2023-05-14T10:00:46.967Z,41.8107
2023-05-14T10:01:48.017Z,42.0246
2023-05-14T10:02:49.147Z,42.1833
2023-05-14T10:03:50.299Z,42.3374
2023-05-14T10:04:51.414Z,42.3666
2023-05-14T10:05:52.422Z,42.4924
2023-05-14T10:06:53.511Z,42.5983
2023-05-14T10:07:54.604Z,42.5494
2023-05-14T10:08:55.680Z,42.5468
2023-05-14T10:09:58.148Z,42.6869
2023-05-14T10:10:57.869Z,42.7524
2023-05-14T10:11:58.992Z,42.8389
2023-05-14T10:13:00.107Z,42.9077
2023-05-14T10:14:01.203Z,42.8646
2023-05-14T10:15:02.260Z,42.8601
2023-05-14T10:16:03.392Z,42.8706
2023-05-14T10:17:04.501Z,42.8733
2023-05-14T10:18:05.615Z,42.7656
2023-05-14T10:19:06.666Z,42.5524
2023-05-14T10:20:07.751Z,42.3510
2023-05-14T10:21:08.845Z,42.1359
2023-05-14T10:22:09.929Z,41.9779
2023-05-14T10:23:11.076Z,41.9600
2023-05-14T10:24:12.156Z,42.0591
2023-05-14T10:25:13.245Z,42.1153
2023-05-14T10:26:14.335Z,42.1467
2023-05-14T10:27:15.435Z,42.1987
2023-05-14T10:28:16.526Z,42.1206
2023-05-14T10:29:17.636Z,42.0641
2023-05-14T10:30:18.727Z,42.0518
2023-05-14T10:31:19.876Z,42.1589
2023-05-14T10:32:20.961Z,42.2900
2023-05-14T10:33:22.033Z,42.3288
2023-05-14T10:34:23.100Z,42.2977
2023-05-14T10:35:24.214Z,42.2089
2023-05-14T10:36:25.300Z,42.0397
2023-05-14T10:37:26.421Z,41.8632
2023-05-14T10:38:27.512Z,41.6114
2023-05-14T10:39:28.593Z,41.5449
2023-05-14T10:40:29.691Z,41.5730
2023-05-14T10:41:30.832Z,41.6641
2023-05-14T10:42:31.923Z,41.6714
2023-05-14T10:43:33.022Z,41.6590
2023-05-14T10:44:34.168Z,41.6274
2023-05-14T10:45:35.226Z,41.4372
2023-05-14T10:46:36.366Z,41.3832
2023-05-14T10:47:37.491Z,41.3769
2023-05-14T10:48:38.550Z,41.3335
2023-05-14T10:49:43.425Z,41.2740
2023-05-14T10:50:40.770Z,41.2109
2023-05-14T10:51:41.916Z,41.2308
2023-05-14T10:52:42.894Z,41.2161
2023-05-14T10:53:44.025Z,41.2554
2023-05-14T10:54:45.118Z,41.1432
2023-05-14T10:55:46.199Z,40.9792
2023-05-14T10:56:47.313Z,41.0167
2023-05-14T10:57:48.393Z,41.1490
2023-05-14T10:58:49.535Z,41.1730
2023-05-14T10:59:50.590Z,41.1106
2023-05-14T11:00:51.718Z,41.0395
2023-05-14T11:01:52.801Z,40.9939
2023-05-14T11:02:53.898Z,40.9371
2023-05-14T11:03:55.011Z,40.9760
2023-05-14T11:04:56.073Z,41.0912
2023-05-14T11:05:57.152Z,41.0838
2023-05-14T11:06:58.245Z,40.9815
2023-05-14T11:07:59.329Z,40.8616
2023-05-14T11:09:00.407Z,40.7217
2023-05-14T11:10:01.511Z,40.6140
2023-05-14T11:11:02.608Z,40.5968
2023-05-14T11:12:03.744Z,40.5095
2023-05-14T11:13:04.799Z,40.4981
2023-05-14T11:14:06.716Z,40.4535
2023-05-14T11:15:06.978Z,40.5046
2023-05-14T11:16:21.807Z,40.5707
2023-05-14T11:17:10.240Z,40.7499
2023-05-14T11:18:10.305Z,40.8687
2023-05-14T11:19:11.561Z,41.0558
2023-05-14T11:20:12.454Z,41.1702
2023-05-14T11:21:13.534Z,41.1507
2023-05-14T11:22:14.649Z,41.0248
2023-05-14T11:23:15.699Z,40.9539
2023-05-14T11:24:16.804Z,40.8505
2023-05-14T11:25:17.905Z,40.8595
2023-05-14T11:26:21.533Z,40.9971
2023-05-14T11:27:20.089Z,41.1116
2023-05-14T11:28:21.156Z,41.0741
2023-05-14T11:29:22.253Z,40.9885
2023-05-14T11:30:23.553Z,40.9421
2023-05-14T11:31:24.486Z,40.9594
2023-05-14T11:32:25.572Z,41.0461
2023-05-14T11:33:26.641Z,41.1240
2023-05-14T11:34:27.719Z,41.2023
2023-05-14T11:35:28.806Z,41.1689
2023-05-14T11:36:29.882Z,41.1549
2023-05-14T11:37:31.022Z,41.1339
2023-05-14T11:38:32.096Z,41.2047
2023-05-14T11:39:33.181Z,41.1147
2023-05-14T11:40:34.280Z,40.9464
2023-05-14T11:41:35.351Z,40.7744
2023-05-14T11:42:36.452Z,40.7509
2023-05-14T11:43:37.561Z,40.8579
2023-05-14T11:44:38.655Z,41.0235
2023-05-14T11:45:39.759Z,41.1601
2023-05-14T11:46:40.893Z,41.2000
2023-05-14T11:47:42.006Z,41.2728
2023-05-14T11:48:43.030Z,41.2160
2023-05-14T11:49:44.122Z,41.1723
2023-05-14T11:50:45.212Z,41.1191
2023-05-14T11:51:46.298Z,40.9741
2023-05-14T11:52:47.393Z,40.9337
2023-05-14T11:53:48.504Z,40.9156
2023-05-14T11:54:49.587Z,40.8182
2023-05-14T11:55:50.696Z,40.6728
2023-05-14T11:56:51.760Z,40.7055
2023-05-14T11:57:52.855Z,40.6689
2023-05-14T11:58:53.967Z,40.5982
2023-05-14T11:59:55.040Z,40.4113
2023-05-14T12:00:56.143Z,40.2310
2023-05-14T12:01:57.235Z,40.1986
2023-05-14T12:02:58.370Z,40.2760
2023-05-14T12:03:59.471Z,40.2551
2023-05-14T12:05:00.484Z,40.3123
2023-05-14T12:06:01.599Z,40.3147
2023-05-14T12:07:02.656Z,40.2941
2023-05-14T12:08:03.793Z,40.2109
2023-05-14T12:09:04.863Z,40.1499
2023-05-14T12:10:05.975Z,40.1544
2023-05-14T12:11:07.040Z,40.2132
2023-05-14T12:12:08.129Z,40.2420
2023-05-14T12:13:09.244Z,40.2374
2023-05-14T12:14:10.332Z,40.3086
2023-05-14T12:15:11.434Z,40.2624
2023-05-14T12:16:12.629Z,40.0887
2023-05-14T12:17:13.609Z,39.8818
2023-05-14T12:18:23.950Z,39.7056
2023-05-14T12:19:16.844Z,39.7103